RYR48VZ EDDB-LPPR
Flight info
| Callsign | RYR48VZ |
|---|---|
| Flight time | N/A |
| Altitude | 32000 |
| Route | KISUC Z20 MAG Z92 ABGUS DCT LENDO DCT IDOSA UN857 TOLVU/N0446F330 DCT RAPOR DCT ESTOC UT300 PON UN872 ERIGA UZ218 FUJTI DCT ATLEN DCT INSID T326 ASPOR |
| Aircraft | B738/M-SDE2E3FGHIRWXY/LB1 |
Departure
| Time | N/A |
|---|---|
| Airport | Berlin Brandenburg Airport (EDDB) |
Arrival
| Time | 2026-05-05 21:08 |
|---|---|
| Airport | Francisco de Sá Carneiro Airport (LPPR) |
| Time | Latitude | Longitude | Altitude | Speed | Heading |
|---|---|---|---|---|---|
| 2026-05-05 20:40 | 42.08605 | -7.50434 | 25967 ft | 352 kts | 244° |
| 2026-05-05 20:41 | 42.07310 | -7.53212 | 25597 ft | 349 kts | 244° |
| 2026-05-05 20:41 | 42.06455 | -7.55046 | 25346 ft | 348 kts | 244° |
| 2026-05-05 20:41 | 42.05170 | -7.57800 | 24981 ft | 346 kts | 244° |
| 2026-05-05 20:41 | 42.03891 | -7.60541 | 24584 ft | 345 kts | 243° |
| 2026-05-05 20:42 | 42.02612 | -7.63278 | 24203 ft | 344 kts | 243° |
| 2026-05-05 20:42 | 42.01342 | -7.65994 | 23844 ft | 343 kts | 243° |
| 2026-05-05 20:42 | 42.00073 | -7.68704 | 23442 ft | 341 kts | 243° |
| 2026-05-05 20:42 | 41.98810 | -7.71400 | 23023 ft | 340 kts | 243° |
| 2026-05-05 20:43 | 41.97549 | -7.74087 | 22622 ft | 339 kts | 243° |
| 2026-05-05 20:43 | 41.96311 | -7.76723 | 22260 ft | 337 kts | 243° |
| 2026-05-05 20:43 | 41.95059 | -7.79388 | 21874 ft | 337 kts | 243° |
| 2026-05-05 20:43 | 41.93808 | -7.82048 | 21511 ft | 337 kts | 243° |
| 2026-05-05 20:44 | 41.92548 | -7.84729 | 21135 ft | 343 kts | 243° |
| 2026-05-05 20:44 | 41.91256 | -7.87477 | 20774 ft | 351 kts | 242° |
| 2026-05-05 20:44 | 41.89946 | -7.90255 | 20389 ft | 351 kts | 242° |
| 2026-05-05 20:44 | 41.88642 | -7.93013 | 20002 ft | 349 kts | 242° |
| 2026-05-05 20:45 | 41.86054 | -7.98483 | 19221 ft | 341 kts | 242° |
| 2026-05-05 20:45 | 41.84793 | -8.01146 | 18751 ft | 337 kts | 242° |
| 2026-05-05 20:45 | 41.83561 | -8.03745 | 18340 ft | 330 kts | 242° |
| 2026-05-05 20:46 | 41.82343 | -8.06309 | 17939 ft | 323 kts | 242° |
| 2026-05-05 20:46 | 41.80880 | -8.08566 | 17519 ft | 325 kts | 221° |
| 2026-05-05 20:46 | 41.78933 | -8.10131 | 17080 ft | 323 kts | 213° |
| 2026-05-05 20:46 | 41.76974 | -8.11553 | 16696 ft | 316 kts | 213° |
| 2026-05-05 20:47 | 41.75068 | -8.12950 | 16394 ft | 308 kts | 213° |
| 2026-05-05 20:47 | 41.73211 | -8.14331 | 16072 ft | 302 kts | 213° |
| 2026-05-05 20:47 | 41.71389 | -8.15694 | 15801 ft | 299 kts | 213° |
| 2026-05-05 20:47 | 41.69546 | -8.16974 | 15492 ft | 298 kts | 206° |
| 2026-05-05 20:48 | 41.67609 | -8.17924 | 15254 ft | 292 kts | 202° |
| 2026-05-05 20:48 | 41.65688 | -8.18756 | 15014 ft | 289 kts | 201° |
| 2026-05-05 20:48 | 41.63779 | -8.19575 | 14764 ft | 287 kts | 201° |
| 2026-05-05 20:48 | 41.61908 | -8.20391 | 14528 ft | 285 kts | 201° |
| 2026-05-05 20:49 | 41.60031 | -8.21223 | 14290 ft | 284 kts | 202° |
| 2026-05-05 20:49 | 41.58164 | -8.22060 | 14049 ft | 282 kts | 202° |
| 2026-05-05 20:49 | 41.56310 | -8.22899 | 13802 ft | 280 kts | 202° |
| 2026-05-05 20:49 | 41.54469 | -8.23734 | 13531 ft | 279 kts | 202° |
| 2026-05-05 20:50 | 41.52640 | -8.24566 | 13270 ft | 277 kts | 202° |
| 2026-05-05 20:50 | 41.50812 | -8.25399 | 12992 ft | 277 kts | 202° |
| 2026-05-05 20:50 | 41.48998 | -8.26226 | 12727 ft | 275 kts | 201° |
| 2026-05-05 20:50 | 41.47195 | -8.27047 | 12458 ft | 273 kts | 201° |
| 2026-05-05 20:51 | 41.45336 | -8.27576 | 12210 ft | 275 kts | 189° |
| 2026-05-05 20:51 | 41.43437 | -8.27866 | 12132 ft | 276 kts | 189° |
| 2026-05-05 20:51 | 41.41520 | -8.28163 | 12099 ft | 278 kts | 189° |
| 2026-05-05 20:52 | 41.33335 | -8.29415 | 12078 ft | 262 kts | 189° |
| 2026-05-05 20:53 | 41.31523 | -8.29691 | 12078 ft | 262 kts | 189° |
| 2026-05-05 20:53 | 41.29711 | -8.29967 | 12070 ft | 262 kts | 189° |
| 2026-05-05 20:53 | 41.27901 | -8.30241 | 11935 ft | 264 kts | 189° |
| 2026-05-05 20:53 | 41.26059 | -8.30523 | 11552 ft | 270 kts | 189° |
| 2026-05-05 20:54 | 41.24179 | -8.30815 | 11196 ft | 273 kts | 189° |
| 2026-05-05 20:54 | 41.22293 | -8.31109 | 10947 ft | 272 kts | 189° |
| 2026-05-05 20:54 | 41.20437 | -8.31399 | 10721 ft | 271 kts | 189° |
| 2026-05-05 20:54 | 41.18570 | -8.31693 | 10479 ft | 270 kts | 189° |
| 2026-05-05 20:55 | 41.16711 | -8.31986 | 10241 ft | 269 kts | 189° |
| 2026-05-05 20:55 | 41.14854 | -8.32279 | 9985 ft | 269 kts | 189° |
| 2026-05-05 20:55 | 41.13005 | -8.32574 | 9735 ft | 267 kts | 189° |
| 2026-05-05 20:55 | 41.11164 | -8.32867 | 9489 ft | 266 kts | 189° |
| 2026-05-05 20:56 | 41.09328 | -8.33160 | 9234 ft | 265 kts | 189° |
| 2026-05-05 20:56 | 41.07500 | -8.33450 | 9000 ft | 263 kts | 189° |
| 2026-05-05 20:56 | 41.05686 | -8.33738 | 8746 ft | 262 kts | 188° |
| 2026-05-05 20:56 | 41.03878 | -8.34033 | 8441 ft | 262 kts | 189° |
| 2026-05-05 20:57 | 41.02066 | -8.34330 | 8206 ft | 261 kts | 189° |
| 2026-05-05 20:57 | 41.00266 | -8.34623 | 7924 ft | 262 kts | 189° |
| 2026-05-05 20:57 | 40.98464 | -8.34921 | 7721 ft | 260 kts | 192° |
| 2026-05-05 20:57 | 40.96815 | -8.35777 | 7481 ft | 253 kts | 221° |
| 2026-05-05 20:58 | 40.95509 | -8.37308 | 7311 ft | 250 kts | 228° |
| 2026-05-05 20:58 | 40.94265 | -8.38926 | 7099 ft | 251 kts | 229° |
| 2026-05-05 20:58 | 40.93024 | -8.40557 | 6891 ft | 252 kts | 229° |
| 2026-05-05 20:58 | 40.91786 | -8.42196 | 6685 ft | 252 kts | 229° |
| 2026-05-05 20:59 | 40.90550 | -8.43833 | 6481 ft | 251 kts | 229° |
| 2026-05-05 20:59 | 40.89320 | -8.45459 | 6287 ft | 249 kts | 229° |
| 2026-05-05 20:59 | 40.88109 | -8.47088 | 6129 ft | 247 kts | 234° |
| 2026-05-05 20:59 | 40.87363 | -8.49051 | 5996 ft | 236 kts | 265° |
| 2026-05-05 21:00 | 40.87504 | -8.51132 | 5893 ft | 225 kts | 296° |
| 2026-05-05 21:00 | 40.88354 | -8.52785 | 5802 ft | 220 kts | 319° |
| 2026-05-05 21:00 | 40.89600 | -8.53946 | 5750 ft | 220 kts | 329° |
| 2026-05-05 21:00 | 40.90908 | -8.55011 | 5656 ft | 221 kts | 329° |
| 2026-05-05 21:01 | 40.92224 | -8.56083 | 5571 ft | 223 kts | 329° |
| 2026-05-05 21:01 | 40.93547 | -8.57168 | 5483 ft | 224 kts | 329° |
| 2026-05-05 21:01 | 40.94870 | -8.58258 | 5398 ft | 225 kts | 328° |
| 2026-05-05 21:01 | 40.96193 | -8.59351 | 5307 ft | 223 kts | 329° |
| 2026-05-05 21:02 | 40.97497 | -8.60430 | 5210 ft | 218 kts | 329° |
| 2026-05-05 21:02 | 40.98806 | -8.61339 | 5105 ft | 208 kts | 345° |
| 2026-05-05 21:02 | 41.00184 | -8.61679 | 5002 ft | 195 kts | 349° |
| 2026-05-05 21:02 | 41.01507 | -8.62017 | 4577 ft | 198 kts | 348° |
| 2026-05-05 21:03 | 41.02839 | -8.62368 | 4300 ft | 193 kts | 348° |
| 2026-05-05 21:03 | 41.04141 | -8.62714 | 4042 ft | 189 kts | 348° |
| 2026-05-05 21:03 | 41.05397 | -8.63049 | 3805 ft | 184 kts | 348° |
| 2026-05-05 21:03 | 41.06641 | -8.63378 | 3557 ft | 182 kts | 348° |
| 2026-05-05 21:04 | 41.07884 | -8.63701 | 3322 ft | 181 kts | 348° |
| 2026-05-05 21:04 | 41.09108 | -8.64020 | 3102 ft | 177 kts | 348° |
| 2026-05-05 21:04 | 41.10304 | -8.64331 | 2853 ft | 173 kts | 348° |
| 2026-05-05 21:04 | 41.11473 | -8.64636 | 2623 ft | 169 kts | 348° |
| 2026-05-05 21:05 | 41.12614 | -8.64934 | 2405 ft | 165 kts | 348° |
| 2026-05-05 21:05 | 41.13737 | -8.65227 | 2188 ft | 164 kts | 348° |
| 2026-05-05 21:05 | 41.14860 | -8.65521 | 1975 ft | 163 kts | 348° |
| 2026-05-05 21:05 | 41.15978 | -8.65813 | 1765 ft | 165 kts | 348° |
| 2026-05-05 21:06 | 41.17096 | -8.66106 | 1528 ft | 159 kts | 349° |
| 2026-05-05 21:06 | 41.18143 | -8.66379 | 1350 ft | 149 kts | 348° |
| 2026-05-05 21:06 | 41.19167 | -8.66647 | 1137 ft | 150 kts | 348° |
| 2026-05-05 21:06 | 41.20179 | -8.66912 | 941 ft | 151 kts | 348° |
| 2026-05-05 21:07 | 41.21208 | -8.67174 | 706 ft | 151 kts | 347° |
| 2026-05-05 21:07 | 41.22235 | -8.67448 | 525 ft | 150 kts | 348° |
| 2026-05-05 21:07 | 41.23263 | -8.67720 | 297 ft | 150 kts | 348° |
| 2026-05-05 21:07 | 41.24239 | -8.67975 | 213 ft | 122 kts | 349° |
| 2026-05-05 21:08 | 41.24870 | -8.68141 | 195 ft | 70 kts | 349° |
| 2026-05-05 21:08 | 41.25193 | -8.68141 | 182 ft | 31 kts | 18° |
| 2026-05-05 21:08 | 41.25297 | -8.68053 | 179 ft | 15 kts | 91° |
| 2026-05-05 21:08 | 41.25216 | -8.68002 | 184 ft | 13 kts | 169° |
| 2026-05-05 21:09 | 41.25156 | -8.67986 | 197 ft | 13 kts | 169° |
| 2026-05-05 21:09 | 41.25065 | -8.67963 | 190 ft | 15 kts | 168° |
| 2026-05-05 21:09 | 41.24927 | -8.67926 | 195 ft | 24 kts | 168° |
| 2026-05-05 21:09 | 41.24781 | -8.67839 | 212 ft | 23 kts | 156° |
| 2026-05-05 21:10 | 41.24630 | -8.67792 | 212 ft | 22 kts | 168° |
| 2026-05-05 21:10 | 41.24473 | -8.67752 | 220 ft | 24 kts | 169° |
| 2026-05-05 21:10 | 41.24310 | -8.67701 | 230 ft | 23 kts | 150° |
| 2026-05-05 21:10 | 41.24210 | -8.67578 | 237 ft | 18 kts | 160° |
| 2026-05-05 21:11 | 41.24089 | -8.67545 | 237 ft | 17 kts | 169° |
| 2026-05-05 21:11 | 41.23973 | -8.67515 | 237 ft | 17 kts | 169° |
| 2026-05-05 21:11 | 41.23861 | -8.67486 | 238 ft | 16 kts | 168° |
| 2026-05-05 21:11 | 41.23756 | -8.67450 | 238 ft | 15 kts | 147° |
| 2026-05-05 21:12 | 41.23721 | -8.67386 | 240 ft | 6 kts | 97° |
| 2026-05-05 21:12 | 41.23745 | -8.67342 | 242 ft | 6 kts | 49° |
| 2026-05-05 21:12 | 41.23768 | -8.67307 | 244 ft | 4 kts | 49° |
| 2026-05-05 21:12 | 41.23773 | -8.67299 | 244 ft | 0 kts | 49° |